Terminal Aerodrome Forecast
Issued by NWS

Home | Current Version | Previous Version | Text Only | Print | Product List | Glossary On
Versions: 1 2 3 4 5 6 7 8 9 10 11 12 13 14 15 16
000
FTUS45 KRIW 271600 AAB
TAFJAC
TAF AMD
KJAC 271614Z 2716/2812 VRB04KT P6SM BKN050 OVC070
     FM271700 20009KT P6SM VCSH SCT030 OVC060
     FM271900 VRB10G17KT P6SM VCTS SCT040 BKN060CB
     FM280300 VRB05KT P6SM VCSH SCT030 BKN060
      AMD LTD TO CLD VIS AND WIND=

USA.gov is the U.S. government's official web portal to all federal, state and local government web resources and services.